sensor_id;sensor_type;location;lat;lon;timestamp;P1;durP1;ratioP1;P2;durP2;ratioP2
39880;SDS011;25554;44.954;10.068;2022-12-08T00:01:19;75.60;;;32.22;;
39880;SDS011;25554;44.954;10.068;2022-12-08T00:03:48;74.93;;;33.65;;
39880;SDS011;25554;44.954;10.068;2022-12-08T00:06:25;84.32;;;33.35;;
39880;SDS011;25554;44.954;10.068;2022-12-08T00:09:16;76.95;;;30.50;;
39880;SDS011;25554;44.954;10.068;2022-12-08T00:11:49;90.55;;;36.33;;
39880;SDS011;25554;44.954;10.068;2022-12-08T00:14:16;87.43;;;36.50;;
39880;SDS011;25554;44.954;10.068;2022-12-08T00:16:43;97.00;;;37.50;;
39880;SDS011;25554;44.954;10.068;2022-12-08T00:19:09;96.63;;;39.10;;
39880;SDS011;25554;44.954;10.068;2022-12-08T00:21:36;89.82;;;36.92;;
39880;SDS011;25554;44.954;10.068;2022-12-08T00:24:02;91.72;;;38.72;;
39880;SDS011;25554;44.954;10.068;2022-12-08T00:26:29;95.55;;;38.28;;
39880;SDS011;25554;44.954;10.068;2022-12-08T00:28:56;107.93;;;39.17;;
39880;SDS011;25554;44.954;10.068;2022-12-08T00:31:22;102.82;;;40.08;;
39880;SDS011;25554;44.954;10.068;2022-12-08T00:33:49;107.05;;;39.70;;
39880;SDS011;25554;44.954;10.068;2022-12-08T00:36:15;105.78;;;40.67;;
39880;SDS011;25554;44.954;10.068;2022-12-08T00:38:42;105.85;;;40.28;;
39880;SDS011;25554;44.954;10.068;2022-12-08T00:41:13;105.88;;;41.85;;
39880;SDS011;25554;44.954;10.068;2022-12-08T00:43:42;102.45;;;40.47;;
39880;SDS011;25554;44.954;10.068;2022-12-08T00:46:08;102.70;;;41.22;;
39880;SDS011;25554;44.954;10.068;2022-12-08T00:48:35;103.25;;;40.20;;
39880;SDS011;25554;44.954;10.068;2022-12-08T00:51:02;103.30;;;37.85;;
39880;SDS011;25554;44.954;10.068;2022-12-08T00:53:29;102.10;;;40.35;;
39880;SDS011;25554;44.954;10.068;2022-12-08T00:55:55;102.55;;;41.30;;
39880;SDS011;25554;44.954;10.068;2022-12-08T00:58:22;96.85;;;38.88;;
39880;SDS011;25554;44.954;10.068;2022-12-08T01:00:48;105.90;;;40.63;;
39880;SDS011;25554;44.954;10.068;2022-12-08T01:05:41;101.30;;;38.38;;
39880;SDS011;25554;44.954;10.068;2022-12-08T01:08:08;102.13;;;38.97;;
39880;SDS011;25554;44.954;10.068;2022-12-08T01:10:36;105.03;;;39.92;;
39880;SDS011;25554;44.954;10.068;2022-12-08T01:13:03;99.03;;;41.03;;
39880;SDS011;25554;44.954;10.068;2022-12-08T01:15:29;111.10;;;41.75;;
39880;SDS011;25554;44.954;10.068;2022-12-08T01:17:56;109.85;;;40.90;;
39880;SDS011;25554;44.954;10.068;2022-12-08T01:20:22;109.85;;;42.35;;
39880;SDS011;25554;44.954;10.068;2022-12-08T01:22:49;106.72;;;42.35;;
39880;SDS011;25554;44.954;10.068;2022-12-08T01:25:15;99.53;;;41.33;;
39880;SDS011;25554;44.954;10.068;2022-12-08T01:27:42;119.40;;;44.90;;
39880;SDS011;25554;44.954;10.068;2022-12-08T01:32:35;107.22;;;40.28;;
39880;SDS011;25554;44.954;10.068;2022-12-08T01:35:02;108.88;;;41.70;;
39880;SDS011;25554;44.954;10.068;2022-12-08T01:37:28;108.72;;;42.40;;
39880;SDS011;25554;44.954;10.068;2022-12-08T01:39:55;112.03;;;44.25;;
39880;SDS011;25554;44.954;10.068;2022-12-08T01:44:50;101.72;;;39.35;;
39880;SDS011;25554;44.954;10.068;2022-12-08T01:47:20;106.97;;;41.60;;
39880;SDS011;25554;44.954;10.068;2022-12-08T01:49:47;104.80;;;42.33;;
39880;SDS011;25554;44.954;10.068;2022-12-08T01:52:18;112.30;;;43.90;;
39880;SDS011;25554;44.954;10.068;2022-12-08T01:54:58;107.05;;;41.85;;
39880;SDS011;25554;44.954;10.068;2022-12-08T01:57:34;106.80;;;42.30;;
39880;SDS011;25554;44.954;10.068;2022-12-08T02:00:08;110.72;;;42.95;;
39880;SDS011;25554;44.954;10.068;2022-12-08T02:02:53;115.50;;;44.10;;
39880;SDS011;25554;44.954;10.068;2022-12-08T02:05:21;114.30;;;44.67;;
39880;SDS011;25554;44.954;10.068;2022-12-08T02:07:50;105.82;;;42.15;;
39880;SDS011;25554;44.954;10.068;2022-12-08T02:10:18;114.90;;;45.17;;
39880;SDS011;25554;44.954;10.068;2022-12-08T02:12:45;116.32;;;44.72;;
39880;SDS011;25554;44.954;10.068;2022-12-08T02:15:13;112.60;;;43.13;;
39880;SDS011;25554;44.954;10.068;2022-12-08T02:20:31;107.75;;;42.67;;
39880;SDS011;25554;44.954;10.068;2022-12-08T02:28:24;102.15;;;39.92;;
39880;SDS011;25554;44.954;10.068;2022-12-08T02:47:05;110.55;;;43.72;;
39880;SDS011;25554;44.954;10.068;2022-12-08T02:49:38;109.20;;;43.20;;
39880;SDS011;25554;44.954;10.068;2022-12-08T02:52:05;106.60;;;42.95;;
39880;SDS011;25554;44.954;10.068;2022-12-08T02:54:38;107.57;;;45.42;;
39880;SDS011;25554;44.954;10.068;2022-12-08T03:00:23;103.75;;;41.78;;
39880;SDS011;25554;44.954;10.068;2022-12-08T03:05:48;104.32;;;41.08;;
39880;SDS011;25554;44.954;10.068;2022-12-08T03:08:32;105.18;;;41.90;;
39880;SDS011;25554;44.954;10.068;2022-12-08T03:13:37;107.28;;;43.42;;
39880;SDS011;25554;44.954;10.068;2022-12-08T03:16:11;108.30;;;41.67;;
39880;SDS011;25554;44.954;10.068;2022-12-08T03:18:44;104.63;;;41.42;;
39880;SDS011;25554;44.954;10.068;2022-12-08T03:21:14;95.28;;;39.72;;
39880;SDS011;25554;44.954;10.068;2022-12-08T03:23:44;96.20;;;39.75;;
39880;SDS011;25554;44.954;10.068;2022-12-08T03:26:21;93.53;;;38.42;;
39880;SDS011;25554;44.954;10.068;2022-12-08T03:28:59;107.53;;;42.15;;
39880;SDS011;25554;44.954;10.068;2022-12-08T03:31:26;96.25;;;39.22;;
39880;SDS011;25554;44.954;10.068;2022-12-08T03:33:57;105.82;;;40.35;;
39880;SDS011;25554;44.954;10.068;2022-12-08T03:36:24;100.05;;;40.42;;
39880;SDS011;25554;44.954;10.068;2022-12-08T03:38:51;113.95;;;43.28;;
39880;SDS011;25554;44.954;10.068;2022-12-08T03:41:19;101.70;;;41.88;;
39880;SDS011;25554;44.954;10.068;2022-12-08T03:43:47;107.63;;;40.08;;
39880;SDS011;25554;44.954;10.068;2022-12-08T03:46:16;99.28;;;39.97;;
39880;SDS011;25554;44.954;10.068;2022-12-08T03:48:43;113.63;;;42.63;;
39880;SDS011;25554;44.954;10.068;2022-12-08T03:51:09;113.68;;;42.75;;
39880;SDS011;25554;44.954;10.068;2022-12-08T03:53:36;104.50;;;41.80;;
39880;SDS011;25554;44.954;10.068;2022-12-08T03:56:04;100.35;;;40.75;;
39880;SDS011;25554;44.954;10.068;2022-12-08T03:58:31;114.38;;;43.60;;
39880;SDS011;25554;44.954;10.068;2022-12-08T04:00:58;110.95;;;43.80;;
39880;SDS011;25554;44.954;10.068;2022-12-08T04:03:24;108.90;;;42.80;;
39880;SDS011;25554;44.954;10.068;2022-12-08T04:05:51;104.60;;;39.88;;
39880;SDS011;25554;44.954;10.068;2022-12-08T04:08:18;100.18;;;41.08;;
39880;SDS011;25554;44.954;10.068;2022-12-08T04:10:44;97.20;;;38.10;;
39880;SDS011;25554;44.954;10.068;2022-12-08T04:13:11;99.18;;;39.90;;
39880;SDS011;25554;44.954;10.068;2022-12-08T04:18:03;101.50;;;40.85;;
39880;SDS011;25554;44.954;10.068;2022-12-08T04:20:30;103.00;;;43.00;;
39880;SDS011;25554;44.954;10.068;2022-12-08T04:25:22;103.68;;;41.20;;
39880;SDS011;25554;44.954;10.068;2022-12-08T04:27:49;114.55;;;41.85;;
39880;SDS011;25554;44.954;10.068;2022-12-08T04:30:15;114.28;;;43.40;;
39880;SDS011;25554;44.954;10.068;2022-12-08T04:32:42;116.63;;;45.67;;
39880;SDS011;25554;44.954;10.068;2022-12-08T04:35:08;123.10;;;48.95;;
39880;SDS011;25554;44.954;10.068;2022-12-08T04:37:35;122.25;;;45.65;;
39880;SDS011;25554;44.954;10.068;2022-12-08T04:40:02;120.75;;;46.38;;
39880;SDS011;25554;44.954;10.068;2022-12-08T04:42:28;124.32;;;48.33;;
39880;SDS011;25554;44.954;10.068;2022-12-08T04:47:21;121.78;;;46.13;;
39880;SDS011;25554;44.954;10.068;2022-12-08T04:49:47;124.72;;;45.50;;
39880;SDS011;25554;44.954;10.068;2022-12-08T04:52:14;122.40;;;47.08;;
39880;SDS011;25554;44.954;10.068;2022-12-08T04:54:41;135.05;;;49.05;;
39880;SDS011;25554;44.954;10.068;2022-12-08T04:59:33;117.70;;;44.90;;
39880;SDS011;25554;44.954;10.068;2022-12-08T05:02:00;138.35;;;48.35;;
39880;SDS011;25554;44.954;10.068;2022-12-08T05:04:26;130.52;;;49.03;;
39880;SDS011;25554;44.954;10.068;2022-12-08T05:06:53;142.82;;;49.15;;
39880;SDS011;25554;44.954;10.068;2022-12-08T05:09:20;132.55;;;49.35;;
39880;SDS011;25554;44.954;10.068;2022-12-08T05:11:48;133.50;;;49.70;;
39880;SDS011;25554;44.954;10.068;2022-12-08T05:16:41;125.03;;;46.33;;
39880;SDS011;25554;44.954;10.068;2022-12-08T05:19:08;131.75;;;47.03;;
39880;SDS011;25554;44.954;10.068;2022-12-08T05:21:34;132.10;;;47.70;;
39880;SDS011;25554;44.954;10.068;2022-12-08T05:24:01;125.63;;;48.30;;
39880;SDS011;25554;44.954;10.068;2022-12-08T05:26:27;129.30;;;46.40;;
39880;SDS011;25554;44.954;10.068;2022-12-08T05:28:54;129.77;;;46.80;;
39880;SDS011;25554;44.954;10.068;2022-12-08T05:31:20;133.68;;;48.53;;
39880;SDS011;25554;44.954;10.068;2022-12-08T05:33:47;127.47;;;46.28;;
39880;SDS011;25554;44.954;10.068;2022-12-08T05:36:17;126.57;;;45.00;;
39880;SDS011;25554;44.954;10.068;2022-12-08T05:38:43;121.55;;;46.97;;
39880;SDS011;25554;44.954;10.068;2022-12-08T05:41:12;129.23;;;46.08;;
39880;SDS011;25554;44.954;10.068;2022-12-08T05:43:40;124.25;;;46.13;;
39880;SDS011;25554;44.954;10.068;2022-12-08T05:46:07;109.13;;;43.10;;
39880;SDS011;25554;44.954;10.068;2022-12-08T05:48:34;120.47;;;45.30;;
39880;SDS011;25554;44.954;10.068;2022-12-08T05:51:00;116.35;;;43.35;;
39880;SDS011;25554;44.954;10.068;2022-12-08T05:53:27;125.82;;;45.15;;
39880;SDS011;25554;44.954;10.068;2022-12-08T05:55:53;125.60;;;43.88;;
39880;SDS011;25554;44.954;10.068;2022-12-08T05:58:20;121.97;;;44.53;;
39880;SDS011;25554;44.954;10.068;2022-12-08T06:00:48;127.18;;;41.90;;
39880;SDS011;25554;44.954;10.068;2022-12-08T06:03:16;118.60;;;43.20;;
39880;SDS011;25554;44.954;10.068;2022-12-08T06:05:43;127.13;;;44.60;;
39880;SDS011;25554;44.954;10.068;2022-12-08T06:08:11;108.38;;;39.60;;
39880;SDS011;25554;44.954;10.068;2022-12-08T06:10:41;116.25;;;42.28;;
39880;SDS011;25554;44.954;10.068;2022-12-08T06:13:08;129.10;;;41.92;;
39880;SDS011;25554;44.954;10.068;2022-12-08T06:15:35;127.65;;;43.30;;
39880;SDS011;25554;44.954;10.068;2022-12-08T06:18:03;132.63;;;42.47;;
39880;SDS011;25554;44.954;10.068;2022-12-08T06:20:30;129.05;;;43.58;;
39880;SDS011;25554;44.954;10.068;2022-12-08T06:25:23;117.07;;;41.53;;
39880;SDS011;25554;44.954;10.068;2022-12-08T06:27:49;124.25;;;42.65;;
39880;SDS011;25554;44.954;10.068;2022-12-08T06:30:16;118.93;;;41.50;;
39880;SDS011;25554;44.954;10.068;2022-12-08T06:32:43;132.77;;;42.72;;
39880;SDS011;25554;44.954;10.068;2022-12-08T06:35:09;128.00;;;42.47;;
39880;SDS011;25554;44.954;10.068;2022-12-08T06:37:36;134.10;;;44.53;;
39880;SDS011;25554;44.954;10.068;2022-12-08T06:40:02;130.05;;;44.65;;
39880;SDS011;25554;44.954;10.068;2022-12-08T06:42:29;119.07;;;41.47;;
39880;SDS011;25554;44.954;10.068;2022-12-08T06:45:14;123.05;;;39.55;;
39880;SDS011;25554;44.954;10.068;2022-12-08T06:47:42;133.75;;;41.45;;
39880;SDS011;25554;44.954;10.068;2022-12-08T06:50:09;138.27;;;44.38;;
39880;SDS011;25554;44.954;10.068;2022-12-08T06:52:36;133.32;;;43.60;;
39880;SDS011;25554;44.954;10.068;2022-12-08T06:55:05;134.88;;;42.90;;
39880;SDS011;25554;44.954;10.068;2022-12-08T06:57:32;136.07;;;43.38;;
39880;SDS011;25554;44.954;10.068;2022-12-08T06:59:59;119.05;;;41.92;;
39880;SDS011;25554;44.954;10.068;2022-12-08T07:02:25;109.32;;;40.45;;
39880;SDS011;25554;44.954;10.068;2022-12-08T07:04:52;104.97;;;39.22;;
39880;SDS011;25554;44.954;10.068;2022-12-08T07:09:44;101.05;;;36.22;;
39880;SDS011;25554;44.954;10.068;2022-12-08T07:12:11;114.78;;;38.63;;
39880;SDS011;25554;44.954;10.068;2022-12-08T07:14:38;106.65;;;38.03;;
39880;SDS011;25554;44.954;10.068;2022-12-08T07:17:04;112.85;;;38.25;;
39880;SDS011;25554;44.954;10.068;2022-12-08T07:21:57;99.65;;;33.72;;
39880;SDS011;25554;44.954;10.068;2022-12-08T07:24:24;107.50;;;37.97;;
39880;SDS011;25554;44.954;10.068;2022-12-08T07:26:50;106.60;;;38.28;;
39880;SDS011;25554;44.954;10.068;2022-12-08T07:29:17;125.13;;;43.95;;
39880;SDS011;25554;44.954;10.068;2022-12-08T07:31:43;122.53;;;40.50;;
39880;SDS011;25554;44.954;10.068;2022-12-08T07:34:11;111.85;;;39.55;;
39880;SDS011;25554;44.954;10.068;2022-12-08T07:36:37;119.22;;;40.35;;
39880;SDS011;25554;44.954;10.068;2022-12-08T07:39:04;118.15;;;39.97;;
39880;SDS011;25554;44.954;10.068;2022-12-08T07:41:31;119.30;;;39.50;;
39880;SDS011;25554;44.954;10.068;2022-12-08T07:43:58;118.90;;;38.78;;
39880;SDS011;25554;44.954;10.068;2022-12-08T07:46:24;122.72;;;39.30;;
39880;SDS011;25554;44.954;10.068;2022-12-08T07:48:51;108.95;;;35.33;;
39880;SDS011;25554;44.954;10.068;2022-12-08T07:51:19;109.85;;;37.15;;
39880;SDS011;25554;44.954;10.068;2022-12-08T07:53:46;116.85;;;38.42;;
39880;SDS011;25554;44.954;10.068;2022-12-08T07:56:13;124.05;;;40.72;;
39880;SDS011;25554;44.954;10.068;2022-12-08T07:58:40;133.35;;;41.17;;
39880;SDS011;25554;44.954;10.068;2022-12-08T08:01:17;133.98;;;39.88;;
39880;SDS011;25554;44.954;10.068;2022-12-08T08:03:44;128.18;;;38.58;;
39880;SDS011;25554;44.954;10.068;2022-12-08T08:08:37;115.30;;;35.42;;
39880;SDS011;25554;44.954;10.068;2022-12-08T08:11:06;115.10;;;37.83;;
39880;SDS011;25554;44.954;10.068;2022-12-08T08:13:33;113.47;;;36.70;;
39880;SDS011;25554;44.954;10.068;2022-12-08T08:16:06;107.95;;;37.55;;
39880;SDS011;25554;44.954;10.068;2022-12-08T08:18:35;119.10;;;37.38;;
39880;SDS011;25554;44.954;10.068;2022-12-08T08:21:02;115.95;;;38.25;;
39880;SDS011;25554;44.954;10.068;2022-12-08T08:23:29;114.85;;;37.28;;
39880;SDS011;25554;44.954;10.068;2022-12-08T08:26:00;103.03;;;34.92;;
39880;SDS011;25554;44.954;10.068;2022-12-08T08:28:28;107.95;;;35.67;;
39880;SDS011;25554;44.954;10.068;2022-12-08T08:30:54;112.75;;;36.33;;
39880;SDS011;25554;44.954;10.068;2022-12-08T08:33:21;113.18;;;36.70;;
39880;SDS011;25554;44.954;10.068;2022-12-08T08:35:48;109.75;;;35.25;;
39880;SDS011;25554;44.954;10.068;2022-12-08T08:38:14;120.88;;;37.50;;
39880;SDS011;25554;44.954;10.068;2022-12-08T08:40:41;108.90;;;35.78;;
39880;SDS011;25554;44.954;10.068;2022-12-08T08:45:34;108.55;;;34.30;;
39880;SDS011;25554;44.954;10.068;2022-12-08T08:48:00;108.85;;;36.05;;
39880;SDS011;25554;44.954;10.068;2022-12-08T08:50:27;116.80;;;37.50;;
39880;SDS011;25554;44.954;10.068;2022-12-08T08:52:53;95.60;;;33.58;;
39880;SDS011;25554;44.954;10.068;2022-12-08T08:55:20;111.93;;;35.75;;
39880;SDS011;25554;44.954;10.068;2022-12-08T08:57:46;102.65;;;35.20;;
39880;SDS011;25554;44.954;10.068;2022-12-08T09:02:39;103.40;;;36.50;;
39880;SDS011;25554;44.954;10.068;2022-12-08T09:05:06;110.82;;;34.97;;
39880;SDS011;25554;44.954;10.068;2022-12-08T09:07:32;109.13;;;36.72;;
39880;SDS011;25554;44.954;10.068;2022-12-08T09:09:59;97.82;;;35.80;;
39880;SDS011;25554;44.954;10.068;2022-12-08T09:12:26;95.20;;;35.83;;
39880;SDS011;25554;44.954;10.068;2022-12-08T09:14:52;98.90;;;36.45;;
39880;SDS011;25554;44.954;10.068;2022-12-08T09:17:19;86.47;;;32.92;;
39880;SDS011;25554;44.954;10.068;2022-12-08T09:22:13;93.88;;;33.42;;
39880;SDS011;25554;44.954;10.068;2022-12-08T09:24:41;100.65;;;34.15;;
39880;SDS011;25554;44.954;10.068;2022-12-08T09:27:07;106.60;;;37.45;;
39880;SDS011;25554;44.954;10.068;2022-12-08T09:29:34;110.07;;;36.60;;
39880;SDS011;25554;44.954;10.068;2022-12-08T09:32:00;101.50;;;37.85;;
39880;SDS011;25554;44.954;10.068;2022-12-08T09:34:27;105.95;;;36.60;;
39880;SDS011;25554;44.954;10.068;2022-12-08T09:36:54;113.22;;;35.22;;
39880;SDS011;25554;44.954;10.068;2022-12-08T09:39:21;101.97;;;35.95;;
39880;SDS011;25554;44.954;10.068;2022-12-08T09:49:13;89.22;;;32.00;;
39880;SDS011;25554;44.954;10.068;2022-12-08T09:51:43;104.25;;;36.50;;
39880;SDS011;25554;44.954;10.068;2022-12-08T09:54:15;95.45;;;36.95;;
39880;SDS011;25554;44.954;10.068;2022-12-08T09:56:50;90.95;;;35.10;;
39880;SDS011;25554;44.954;10.068;2022-12-08T10:06:54;91.88;;;36.88;;
39880;SDS011;25554;44.954;10.068;2022-12-08T10:09:44;90.13;;;35.08;;
39880;SDS011;25554;44.954;10.068;2022-12-08T10:17:54;94.22;;;36.08;;
39880;SDS011;25554;44.954;10.068;2022-12-08T10:20:26;88.28;;;34.95;;
39880;SDS011;25554;44.954;10.068;2022-12-08T10:25:44;90.55;;;38.45;;
39880;SDS011;25554;44.954;10.068;2022-12-08T10:28:12;91.20;;;36.17;;
39880;SDS011;25554;44.954;10.068;2022-12-08T10:30:39;92.03;;;37.05;;
39880;SDS011;25554;44.954;10.068;2022-12-08T10:33:08;90.45;;;36.03;;
39880;SDS011;25554;44.954;10.068;2022-12-08T10:35:44;97.63;;;37.85;;
39880;SDS011;25554;44.954;10.068;2022-12-08T10:38:47;88.60;;;35.92;;
39880;SDS011;25554;44.954;10.068;2022-12-08T10:41:11;96.10;;;38.72;;
39880;SDS011;25554;44.954;10.068;2022-12-08T10:46:13;97.35;;;37.70;;
39880;SDS011;25554;44.954;10.068;2022-12-08T10:48:50;95.55;;;39.15;;
39880;SDS011;25554;44.954;10.068;2022-12-08T10:51:22;92.47;;;38.72;;
39880;SDS011;25554;44.954;10.068;2022-12-08T10:53:51;89.15;;;36.97;;
39880;SDS011;25554;44.954;10.068;2022-12-08T10:56:18;87.65;;;36.10;;
39880;SDS011;25554;44.954;10.068;2022-12-08T10:58:48;85.05;;;37.08;;
39880;SDS011;25554;44.954;10.068;2022-12-08T11:01:31;86.28;;;35.63;;
39880;SDS011;25554;44.954;10.068;2022-12-08T11:04:03;89.78;;;37.70;;
39880;SDS011;25554;44.954;10.068;2022-12-08T11:06:37;88.25;;;38.13;;
39880;SDS011;25554;44.954;10.068;2022-12-08T11:09:05;91.57;;;37.20;;
39880;SDS011;25554;44.954;10.068;2022-12-08T11:14:29;89.35;;;35.72;;
39880;SDS011;25554;44.954;10.068;2022-12-08T11:17:23;91.15;;;37.88;;
39880;SDS011;25554;44.954;10.068;2022-12-08T11:22:31;91.25;;;36.85;;
39880;SDS011;25554;44.954;10.068;2022-12-08T11:27:46;89.22;;;36.25;;
39880;SDS011;25554;44.954;10.068;2022-12-08T11:30:15;88.90;;;36.42;;
39880;SDS011;25554;44.954;10.068;2022-12-08T11:32:51;83.60;;;33.92;;
39880;SDS011;25554;44.954;10.068;2022-12-08T11:35:27;81.33;;;36.40;;
39880;SDS011;25554;44.954;10.068;2022-12-08T11:37:57;82.57;;;35.30;;
39880;SDS011;25554;44.954;10.068;2022-12-08T11:40:34;88.05;;;35.67;;
39880;SDS011;25554;44.954;10.068;2022-12-08T11:43:16;86.22;;;35.72;;
39880;SDS011;25554;44.954;10.068;2022-12-08T11:45:57;85.47;;;33.70;;
39880;SDS011;25554;44.954;10.068;2022-12-08T11:51:50;80.22;;;33.88;;
39880;SDS011;25554;44.954;10.068;2022-12-08T11:54:44;79.03;;;33.38;;
39880;SDS011;25554;44.954;10.068;2022-12-08T11:57:15;80.93;;;32.70;;
39880;SDS011;25554;44.954;10.068;2022-12-08T11:59:49;78.47;;;31.60;;
39880;SDS011;25554;44.954;10.068;2022-12-08T12:02:20;79.90;;;34.00;;
39880;SDS011;25554;44.954;10.068;2022-12-08T12:17:44;72.40;;;32.30;;
39880;SDS011;25554;44.954;10.068;2022-12-08T12:20:24;75.43;;;31.27;;
39880;SDS011;25554;44.954;10.068;2022-12-08T12:22:59;75.25;;;32.65;;
39880;SDS011;25554;44.954;10.068;2022-12-08T12:25:30;77.97;;;33.22;;
39880;SDS011;25554;44.954;10.068;2022-12-08T12:28:00;73.13;;;31.67;;
39880;SDS011;25554;44.954;10.068;2022-12-08T12:30:52;75.80;;;33.75;;
39880;SDS011;25554;44.954;10.068;2022-12-08T12:33:23;79.28;;;31.83;;
39880;SDS011;25554;44.954;10.068;2022-12-08T12:35:50;73.20;;;30.65;;
39880;SDS011;25554;44.954;10.068;2022-12-08T12:38:24;68.25;;;31.08;;
39880;SDS011;25554;44.954;10.068;2022-12-08T12:41:25;70.72;;;28.80;;
39880;SDS011;25554;44.954;10.068;2022-12-08T12:44:39;67.90;;;29.60;;
39880;SDS011;25554;44.954;10.068;2022-12-08T12:47:01;64.60;;;28.53;;
39880;SDS011;25554;44.954;10.068;2022-12-08T12:50:03;68.95;;;29.45;;
39880;SDS011;25554;44.954;10.068;2022-12-08T12:57:24;64.45;;;30.25;;
39880;SDS011;25554;44.954;10.068;2022-12-08T13:00:18;63.28;;;27.10;;
39880;SDS011;25554;44.954;10.068;2022-12-08T13:02:48;60.40;;;28.00;;
39880;SDS011;25554;44.954;10.068;2022-12-08T13:07:50;62.85;;;28.02;;
39880;SDS011;25554;44.954;10.068;2022-12-08T13:10:38;60.20;;;28.02;;
39880;SDS011;25554;44.954;10.068;2022-12-08T13:15:51;66.18;;;29.92;;
39880;SDS011;25554;44.954;10.068;2022-12-08T13:18:33;63.65;;;29.95;;
39880;SDS011;25554;44.954;10.068;2022-12-08T13:26:21;56.60;;;27.55;;
39880;SDS011;25554;44.954;10.068;2022-12-08T13:31:38;57.67;;;27.50;;
39880;SDS011;25554;44.954;10.068;2022-12-08T13:42:06;60.78;;;29.17;;
39880;SDS011;25554;44.954;10.068;2022-12-08T13:53:10;52.92;;;25.05;;
39880;SDS011;25554;44.954;10.068;2022-12-08T13:55:45;61.28;;;27.48;;
39880;SDS011;25554;44.954;10.068;2022-12-08T14:03:55;54.95;;;25.83;;
39880;SDS011;25554;44.954;10.068;2022-12-08T14:06:30;58.75;;;27.23;;
39880;SDS011;25554;44.954;10.068;2022-12-08T14:09:01;60.25;;;27.67;;
39880;SDS011;25554;44.954;10.068;2022-12-08T14:11:35;60.13;;;27.25;;
39880;SDS011;25554;44.954;10.068;2022-12-08T14:14:15;58.03;;;27.98;;
39880;SDS011;25554;44.954;10.068;2022-12-08T14:16:48;58.25;;;29.63;;
39880;SDS011;25554;44.954;10.068;2022-12-08T14:19:19;57.40;;;27.80;;
39880;SDS011;25554;44.954;10.068;2022-12-08T14:21:57;59.88;;;27.40;;
39880;SDS011;25554;44.954;10.068;2022-12-08T14:24:25;58.42;;;29.08;;
39880;SDS011;25554;44.954;10.068;2022-12-08T14:27:01;56.60;;;26.67;;
39880;SDS011;25554;44.954;10.068;2022-12-08T14:31:58;56.80;;;27.55;;
39880;SDS011;25554;44.954;10.068;2022-12-08T14:36:51;58.33;;;28.63;;
39880;SDS011;25554;44.954;10.068;2022-12-08T14:39:18;56.08;;;27.05;;
39880;SDS011;25554;44.954;10.068;2022-12-08T14:41:58;55.17;;;28.98;;
39880;SDS011;25554;44.954;10.068;2022-12-08T14:44:25;57.92;;;27.38;;
39880;SDS011;25554;44.954;10.068;2022-12-08T14:47:03;63.33;;;28.75;;
39880;SDS011;25554;44.954;10.068;2022-12-08T14:49:32;59.17;;;27.17;;
39880;SDS011;25554;44.954;10.068;2022-12-08T14:52:00;56.83;;;26.45;;
39880;SDS011;25554;44.954;10.068;2022-12-08T14:54:28;58.70;;;28.23;;
39880;SDS011;25554;44.954;10.068;2022-12-08T14:56:55;62.85;;;28.45;;
39880;SDS011;25554;44.954;10.068;2022-12-08T14:59:26;54.20;;;27.05;;
39880;SDS011;25554;44.954;10.068;2022-12-08T15:04:46;61.20;;;27.95;;
39880;SDS011;25554;44.954;10.068;2022-12-08T15:07:22;58.20;;;27.27;;
39880;SDS011;25554;44.954;10.068;2022-12-08T15:15:51;55.53;;;27.33;;
39880;SDS011;25554;44.954;10.068;2022-12-08T15:18:28;60.78;;;30.17;;
39880;SDS011;25554;44.954;10.068;2022-12-08T15:21:04;57.47;;;28.17;;
39880;SDS011;25554;44.954;10.068;2022-12-08T15:23:35;63.20;;;29.23;;
39880;SDS011;25554;44.954;10.068;2022-12-08T15:26:07;60.17;;;27.70;;
39880;SDS011;25554;44.954;10.068;2022-12-08T15:28:33;60.97;;;30.33;;
39880;SDS011;25554;44.954;10.068;2022-12-08T15:31:00;57.25;;;28.33;;
39880;SDS011;25554;44.954;10.068;2022-12-08T15:33:26;77.57;;;37.63;;
39880;SDS011;25554;44.954;10.068;2022-12-08T15:35:53;58.92;;;30.50;;
39880;SDS011;25554;44.954;10.068;2022-12-08T15:38:24;64.95;;;30.20;;
39880;SDS011;25554;44.954;10.068;2022-12-08T15:40:52;60.80;;;29.63;;
39880;SDS011;25554;44.954;10.068;2022-12-08T15:43:19;59.20;;;28.20;;
39880;SDS011;25554;44.954;10.068;2022-12-08T15:45:45;61.78;;;29.00;;
39880;SDS011;25554;44.954;10.068;2022-12-08T15:48:14;62.35;;;28.73;;
39880;SDS011;25554;44.954;10.068;2022-12-08T15:50:54;58.60;;;28.25;;
39880;SDS011;25554;44.954;10.068;2022-12-08T15:53:21;55.58;;;28.83;;
39880;SDS011;25554;44.954;10.068;2022-12-08T15:55:48;58.53;;;28.42;;
39880;SDS011;25554;44.954;10.068;2022-12-08T15:58:17;57.72;;;28.67;;
39880;SDS011;25554;44.954;10.068;2022-12-08T16:00:48;58.72;;;28.50;;
39880;SDS011;25554;44.954;10.068;2022-12-08T16:05:50;59.75;;;28.67;;
39880;SDS011;25554;44.954;10.068;2022-12-08T16:08:16;63.67;;;30.40;;
39880;SDS011;25554;44.954;10.068;2022-12-08T16:10:43;59.30;;;28.25;;
39880;SDS011;25554;44.954;10.068;2022-12-08T16:13:14;64.05;;;29.10;;
39880;SDS011;25554;44.954;10.068;2022-12-08T16:16:04;59.38;;;28.52;;
39880;SDS011;25554;44.954;10.068;2022-12-08T16:18:33;60.30;;;28.20;;
39880;SDS011;25554;44.954;10.068;2022-12-08T16:21:00;57.08;;;27.20;;
39880;SDS011;25554;44.954;10.068;2022-12-08T16:25:53;56.50;;;27.95;;
39880;SDS011;25554;44.954;10.068;2022-12-08T16:28:20;60.55;;;28.98;;
39880;SDS011;25554;44.954;10.068;2022-12-08T16:30:47;58.15;;;28.60;;
39880;SDS011;25554;44.954;10.068;2022-12-08T16:33:13;62.63;;;29.70;;
39880;SDS011;25554;44.954;10.068;2022-12-08T16:38:06;60.20;;;28.88;;
39880;SDS011;25554;44.954;10.068;2022-12-08T16:40:34;59.90;;;27.88;;
39880;SDS011;25554;44.954;10.068;2022-12-08T16:43:21;62.47;;;30.05;;
39880;SDS011;25554;44.954;10.068;2022-12-08T16:48:13;60.75;;;29.33;;
39880;SDS011;25554;44.954;10.068;2022-12-08T16:50:42;64.28;;;32.05;;
39880;SDS011;25554;44.954;10.068;2022-12-08T16:53:10;66.95;;;32.15;;
39880;SDS011;25554;44.954;10.068;2022-12-08T16:55:37;62.63;;;30.70;;
39880;SDS011;25554;44.954;10.068;2022-12-08T16:58:04;63.20;;;31.02;;
39880;SDS011;25554;44.954;10.068;2022-12-08T17:00:31;60.13;;;29.40;;
39880;SDS011;25554;44.954;10.068;2022-12-08T17:03:04;61.08;;;27.52;;
39880;SDS011;25554;44.954;10.068;2022-12-08T17:05:35;55.10;;;26.98;;
39880;SDS011;25554;44.954;10.068;2022-12-08T17:08:04;57.97;;;27.27;;
39880;SDS011;25554;44.954;10.068;2022-12-08T17:10:31;57.13;;;28.48;;
39880;SDS011;25554;44.954;10.068;2022-12-08T17:12:59;60.05;;;29.88;;
39880;SDS011;25554;44.954;10.068;2022-12-08T17:15:27;68.95;;;30.98;;
39880;SDS011;25554;44.954;10.068;2022-12-08T17:17:53;60.38;;;28.75;;
39880;SDS011;25554;44.954;10.068;2022-12-08T17:22:47;73.90;;;30.05;;
39880;SDS011;25554;44.954;10.068;2022-12-08T17:25:14;64.65;;;30.40;;